createdAt,value
2022-12-26T00:00:58.624Z,5.47
2022-12-26T00:03:26.126Z,6.43
2022-12-26T00:05:53.285Z,7.00
2022-12-26T00:08:20.186Z,8.43
2022-12-26T00:10:47.085Z,10.13
2022-12-26T00:13:38.570Z,7.43
2022-12-26T00:16:12.021Z,6.97
2022-12-26T00:18:39.792Z,6.57
2022-12-26T00:21:08.934Z,7.68
2022-12-26T00:23:36.962Z,7.60
2022-12-26T00:26:05.848Z,7.20
2022-12-26T00:28:33.105Z,6.63
2022-12-26T00:31:04.557Z,6.22
2022-12-26T00:33:31.630Z,6.90
2022-12-26T00:36:07.786Z,8.00
2022-12-26T00:38:37.485Z,6.35
2022-12-26T00:41:05.202Z,7.50
2022-12-26T00:43:32.788Z,7.60
2022-12-26T00:46:00.697Z,8.30
2022-12-26T00:48:28.119Z,8.32
2022-12-26T00:50:55.538Z,9.35
2022-12-26T00:53:23.473Z,10.63
2022-12-26T00:55:51.609Z,8.38
2022-12-26T00:58:19.765Z,6.93
2022-12-26T01:00:47.063Z,7.47
2022-12-26T01:03:14.592Z,7.82
2022-12-26T01:05:46.962Z,5.78
2022-12-26T01:08:21.755Z,6.78
2022-12-26T01:10:50.864Z,7.43
2022-12-26T01:13:17.799Z,7.28
2022-12-26T01:15:52.403Z,6.95
2022-12-26T01:18:20.217Z,6.60
2022-12-26T01:20:47.633Z,5.72
2022-12-26T01:23:14.863Z,5.32
2022-12-26T01:26:15.045Z,7.43
2022-12-26T01:28:28.931Z,6.35
2022-12-26T01:30:55.845Z,5.20
2022-12-26T01:33:22.757Z,5.93
2022-12-26T01:35:53.491Z,5.07
2022-12-26T01:38:21.698Z,5.80
2022-12-26T01:40:49.701Z,6.50
2022-12-26T01:43:17.301Z,5.88
2022-12-26T01:45:50.909Z,6.30
2022-12-26T01:48:20.549Z,6.88
2022-12-26T01:50:53.531Z,7.20
2022-12-26T01:53:22.547Z,6.68
2022-12-26T01:55:57.076Z,7.97
2022-12-26T01:58:30.813Z,6.68
2022-12-26T02:00:58.241Z,5.80
2022-12-26T02:03:43.720Z,6.13
2022-12-26T02:06:13.468Z,5.95
2022-12-26T02:08:40.738Z,5.65
2022-12-26T02:11:19.521Z,5.32
2022-12-26T02:13:46.668Z,5.43
2022-12-26T02:16:16.686Z,5.93
2022-12-26T02:18:44.262Z,5.15
2022-12-26T02:21:11.091Z,6.93
2022-12-26T02:23:49.880Z,7.35
2022-12-26T02:27:01.252Z,6.22
2022-12-26T02:29:46.996Z,5.00
2022-12-26T02:32:28.743Z,5.85
2022-12-26T02:35:37.563Z,5.88
2022-12-26T02:38:10.251Z,5.80
2022-12-26T02:40:52.896Z,6.57
2022-12-26T02:43:46.215Z,7.18
2022-12-26T02:46:56.751Z,5.60
2022-12-26T02:49:32.694Z,6.68
2022-12-26T02:52:30.370Z,6.10
2022-12-26T02:55:39.897Z,7.18
2022-12-26T02:58:41.649Z,5.38
2022-12-26T03:01:51.139Z,6.80
2022-12-26T03:04:41.271Z,6.30
2022-12-26T03:07:34.926Z,5.63
2022-12-26T03:10:25.137Z,4.63
2022-12-26T03:13:11.509Z,5.25
2022-12-26T03:16:07.397Z,6.00
2022-12-26T03:18:57.148Z,4.28
2022-12-26T03:21:31.714Z,6.63
2022-12-26T03:23:58.695Z,5.28
2022-12-26T03:26:41.232Z,4.97
2022-12-26T03:29:38.095Z,4.63
2022-12-26T03:32:08.817Z,4.97
2022-12-26T03:34:43.720Z,5.30
2022-12-26T03:37:49.195Z,6.45
2022-12-26T03:40:54.294Z,6.40
2022-12-26T03:44:17.464Z,5.95
2022-12-26T03:47:28.363Z,6.07
2022-12-26T03:50:18.644Z,5.38
2022-12-26T03:53:22.000Z,4.38
2022-12-26T03:56:14.277Z,4.75
2022-12-26T03:59:15.666Z,4.20
2022-12-26T04:02:04.961Z,4.13
2022-12-26T04:04:55.597Z,5.15
2022-12-26T04:08:03.920Z,6.13
2022-12-26T04:10:52.912Z,5.68
2022-12-26T04:13:47.610Z,4.22
2022-12-26T04:16:43.801Z,4.90
2022-12-26T04:19:32.215Z,4.30
2022-12-26T04:22:37.505Z,3.33
2022-12-26T04:25:48.553Z,2.90
2022-12-26T04:28:37.954Z,3.40
2022-12-26T04:34:28.099Z,3.78
2022-12-26T04:37:21.984Z,4.50
2022-12-26T04:40:10.106Z,4.13
2022-12-26T04:42:56.988Z,3.20
2022-12-26T04:45:24.175Z,3.47
2022-12-26T04:48:10.151Z,4.30
2022-12-26T04:50:37.289Z,3.53
2022-12-26T04:53:04.463Z,3.40
2022-12-26T04:55:33.381Z,3.80
2022-12-26T04:58:00.571Z,3.30
2022-12-26T05:00:28.663Z,3.33
2022-12-26T05:03:18.970Z,3.90
2022-12-26T05:06:14.026Z,3.47
2022-12-26T05:09:05.149Z,3.72
2022-12-26T05:11:34.568Z,3.65
2022-12-26T05:14:01.835Z,3.78
2022-12-26T05:16:47.883Z,2.80
2022-12-26T05:19:36.047Z,3.83
2022-12-26T05:22:23.152Z,4.15
2022-12-26T05:25:08.822Z,3.45
2022-12-26T05:27:58.211Z,4.43
2022-12-26T05:30:25.510Z,4.38
2022-12-26T05:33:11.235Z,4.63
2022-12-26T05:35:39.600Z,4.43
2022-12-26T05:38:06.641Z,5.22
2022-12-26T05:40:33.562Z,5.75
2022-12-26T05:43:00.583Z,5.20
2022-12-26T05:45:27.548Z,5.13
2022-12-26T05:48:01.798Z,4.53
2022-12-26T05:50:29.169Z,4.45
2022-12-26T05:52:59.912Z,4.32
2022-12-26T05:55:27.111Z,4.55
2022-12-26T05:57:53.994Z,4.57
2022-12-26T06:00:21.431Z,4.18
2022-12-26T06:02:48.725Z,4.68
2022-12-26T06:05:15.994Z,3.85
2022-12-26T06:07:42.958Z,4.05
2022-12-26T06:10:10.754Z,5.13
2022-12-26T06:12:38.948Z,4.53
2022-12-26T06:15:06.620Z,4.85
2022-12-26T06:17:33.585Z,3.95
2022-12-26T06:20:00.648Z,4.03
2022-12-26T06:22:29.912Z,4.60
2022-12-26T06:24:57.119Z,4.40
2022-12-26T06:27:24.128Z,4.57
2022-12-26T06:29:51.064Z,4.35
2022-12-26T06:32:18.003Z,5.32
2022-12-26T06:34:44.944Z,4.20
2022-12-26T06:37:11.832Z,3.90
2022-12-26T06:39:38.725Z,4.25
2022-12-26T06:42:05.723Z,4.22
2022-12-26T06:44:32.603Z,4.88
2022-12-26T06:46:59.596Z,4.78
2022-12-26T06:49:32.714Z,4.45
2022-12-26T06:52:00.437Z,4.45
2022-12-26T06:54:27.335Z,5.00
2022-12-26T06:56:54.402Z,5.53
2022-12-26T06:59:21.409Z,5.30
2022-12-26T07:01:48.445Z,5.57
2022-12-26T07:04:15.500Z,5.85
2022-12-26T07:06:42.713Z,5.75
2022-12-26T07:09:14.688Z,4.30
2022-12-26T07:11:44.506Z,4.90
2022-12-26T07:14:12.070Z,4.65
2022-12-26T07:16:41.180Z,4.57
2022-12-26T07:19:10.271Z,4.03
2022-12-26T07:21:40.844Z,4.13
2022-12-26T07:24:17.780Z,3.95
2022-12-26T07:26:46.410Z,3.33
2022-12-26T07:29:14.143Z,3.00
2022-12-26T07:31:41.773Z,3.40
2022-12-26T07:34:09.168Z,3.03
2022-12-26T07:36:36.126Z,3.05
2022-12-26T07:39:03.202Z,2.78
2022-12-26T07:41:48.731Z,2.75
2022-12-26T07:44:15.662Z,2.72
2022-12-26T07:46:43.539Z,3.00
2022-12-26T07:49:12.573Z,2.00
2022-12-26T07:51:39.792Z,2.85
2022-12-26T07:54:11.093Z,3.15
2022-12-26T07:56:38.243Z,5.05
2022-12-26T07:59:05.230Z,4.55
2022-12-26T08:01:32.457Z,4.57
2022-12-26T08:03:59.611Z,4.03
2022-12-26T08:06:26.552Z,4.53
2022-12-26T08:08:53.456Z,4.90
2022-12-26T08:11:24.470Z,3.72
2022-12-26T08:13:52.760Z,3.00
2022-12-26T08:16:20.875Z,2.58
2022-12-26T08:18:47.939Z,3.00
2022-12-26T08:21:14.923Z,2.83
2022-12-26T08:23:41.938Z,2.70
2022-12-26T08:26:11.726Z,2.50
2022-12-26T08:28:42.228Z,2.80
2022-12-26T08:31:10.625Z,1.63
2022-12-26T08:33:37.654Z,1.40
2022-12-26T08:36:07.234Z,1.70
2022-12-26T08:38:34.360Z,1.50
2022-12-26T08:41:01.782Z,1.67
2022-12-26T08:43:53.222Z,1.30
2022-12-26T08:46:16.268Z,1.50
2022-12-26T08:48:43.574Z,2.92
2022-12-26T08:51:16.114Z,2.22
2022-12-26T08:53:43.458Z,3.08
2022-12-26T08:56:16.668Z,2.80
2022-12-26T08:58:44.057Z,3.90
2022-12-26T09:01:16.866Z,3.08
2022-12-26T09:03:45.025Z,6.78
2022-12-26T09:06:13.771Z,8.20
2022-12-26T09:08:41.838Z,8.40
2022-12-26T09:11:16.075Z,9.65
2022-12-26T09:13:43.665Z,14.15
2022-12-26T09:16:16.379Z,18.90
2022-12-26T09:18:44.613Z,21.17
2022-12-26T09:21:13.382Z,22.88
2022-12-26T09:23:41.487Z,22.55
2022-12-26T09:26:11.695Z,24.70
2022-12-26T09:28:38.953Z,26.63
2022-12-26T09:31:08.379Z,23.23
2022-12-26T09:33:37.815Z,24.48
2022-12-26T09:36:14.472Z,16.13
2022-12-26T09:38:42.975Z,14.30
2022-12-26T09:41:15.449Z,13.13
2022-12-26T09:43:54.846Z,13.80
2022-12-26T10:17:39.728Z,3.40
2022-12-26T10:20:15.670Z,1.83
2022-12-26T10:22:57.784Z,2.17
2022-12-26T10:25:42.472Z,1.85
2022-12-26T10:28:28.592Z,1.73
2022-12-26T10:30:57.981Z,2.55
2022-12-26T10:33:49.367Z,2.40
2022-12-26T10:36:40.673Z,2.58
2022-12-26T10:39:22.537Z,2.53
2022-12-26T10:41:56.991Z,2.10
2022-12-26T10:44:27.896Z,2.40
2022-12-26T10:47:19.431Z,2.33
2022-12-26T10:49:47.900Z,2.85
2022-12-26T10:52:17.789Z,2.72
2022-12-26T10:54:51.252Z,2.95
2022-12-26T10:57:41.643Z,2.95
2022-12-26T11:00:25.461Z,3.20
2022-12-26T11:03:07.780Z,2.92
2022-12-26T11:06:07.067Z,3.50
2022-12-26T11:08:43.263Z,3.55
2022-12-26T11:11:21.171Z,3.10
2022-12-26T11:14:01.807Z,2.60
2022-12-26T11:16:34.112Z,3.55
2022-12-26T11:19:01.734Z,3.35
2022-12-26T11:21:31.012Z,3.40
2022-12-26T11:24:21.036Z,3.40
2022-12-26T11:26:48.691Z,3.00
2022-12-26T11:29:19.184Z,2.88
2022-12-26T11:31:59.471Z,2.95
2022-12-26T11:34:46.306Z,2.85
2022-12-26T11:37:23.887Z,3.17
2022-12-26T11:39:52.475Z,3.28
2022-12-26T11:42:23.836Z,2.70
2022-12-26T11:44:55.325Z,2.80
2022-12-26T11:47:29.886Z,2.88
2022-12-26T11:50:25.212Z,2.97
2022-12-26T11:52:56.686Z,2.92
2022-12-26T11:55:26.646Z,3.92
2022-12-26T11:57:58.857Z,4.22
2022-12-26T12:00:27.268Z,4.28
2022-12-26T12:02:54.979Z,3.83
2022-12-26T12:05:45.141Z,4.63
2022-12-26T12:08:20.905Z,3.85
2022-12-26T12:11:09.386Z,3.80
2022-12-26T12:13:51.293Z,3.75
2022-12-26T12:16:40.280Z,3.92
2022-12-26T12:19:23.304Z,3.80
2022-12-26T12:22:19.708Z,4.22
2022-12-26T12:24:55.680Z,3.75
2022-12-26T12:27:32.190Z,4.43
2022-12-26T12:30:11.030Z,3.97
2022-12-26T12:33:01.259Z,3.05
2022-12-26T12:35:36.846Z,2.63
2022-12-26T12:38:22.342Z,3.40
2022-12-26T12:41:11.037Z,2.63
2022-12-26T12:43:42.283Z,2.67
2022-12-26T12:46:15.585Z,3.10
2022-12-26T12:48:55.864Z,2.90
2022-12-26T12:51:50.463Z,2.70
2022-12-26T12:54:41.515Z,2.20
2022-12-26T12:57:17.439Z,2.70
2022-12-26T13:00:14.922Z,2.50
2022-12-26T13:02:55.759Z,3.10
2022-12-26T13:05:43.790Z,2.90
2022-12-26T13:11:16.778Z,2.90
2022-12-26T13:13:53.716Z,3.47
2022-12-26T13:16:29.006Z,3.80
2022-12-26T13:19:07.005Z,4.38
2022-12-26T13:21:37.532Z,4.25
2022-12-26T13:24:25.445Z,3.83
2022-12-26T13:27:08.072Z,4.13
2022-12-26T13:29:39.167Z,4.63
2022-12-26T13:32:31.403Z,4.45
2022-12-26T13:35:01.181Z,4.60
2022-12-26T13:37:40.289Z,4.60
2022-12-26T13:40:13.537Z,4.82
2022-12-26T13:43:08.660Z,4.38
2022-12-26T13:45:35.669Z,4.95
2022-12-26T13:48:18.007Z,5.45
2022-12-26T13:50:56.005Z,5.88
2022-12-26T13:53:26.542Z,5.13
2022-12-26T13:56:03.427Z,5.28
2022-12-26T13:58:48.807Z,6.13
2022-12-26T14:01:30.536Z,5.75
2022-12-26T14:04:34.584Z,6.78
2022-12-26T14:07:28.916Z,6.75
2022-12-26T14:10:09.936Z,7.00
2022-12-26T14:13:27.859Z,6.88
2022-12-26T14:16:05.804Z,6.75
2022-12-26T14:18:44.204Z,6.63
2022-12-26T14:21:29.478Z,8.05
2022-12-26T14:24:13.147Z,20.25
2022-12-26T14:26:55.754Z,27.83
2022-12-26T14:29:34.355Z,20.52
2022-12-26T14:32:21.504Z,14.13
2022-12-26T14:37:30.362Z,9.75
2022-12-26T14:39:57.305Z,9.30
2022-12-26T14:42:44.791Z,9.05
2022-12-26T14:45:31.825Z,9.30
2022-12-26T14:47:59.189Z,7.80
2022-12-26T14:50:42.383Z,9.10
2022-12-26T14:53:27.538Z,8.50
2022-12-26T14:56:14.098Z,8.13
2022-12-26T14:58:48.720Z,10.10
2022-12-26T15:01:15.980Z,9.57
2022-12-26T15:04:02.323Z,9.95
2022-12-26T15:06:39.534Z,10.27
2022-12-26T15:09:15.323Z,9.88
2022-12-26T15:12:32.818Z,9.83
2022-12-26T15:15:08.711Z,9.50
2022-12-26T15:17:41.662Z,9.57
2022-12-26T15:20:37.753Z,9.07
2022-12-26T15:23:38.464Z,9.68
2022-12-26T15:26:31.336Z,9.52
2022-12-26T15:29:16.221Z,10.13
2022-12-26T15:32:04.243Z,8.93
2022-12-26T15:34:58.728Z,10.32
2022-12-26T15:37:42.137Z,9.45
2022-12-26T15:40:16.223Z,10.98
2022-12-26T15:42:45.821Z,10.55
2022-12-26T15:45:37.120Z,10.18
2022-12-26T15:48:25.855Z,9.88
2022-12-26T15:51:31.273Z,9.55
2022-12-26T15:54:16.983Z,9.85
2022-12-26T15:56:56.479Z,12.52
2022-12-26T16:00:03.844Z,11.07
2022-12-26T16:03:13.769Z,9.35
2022-12-26T16:05:44.925Z,10.85
2022-12-26T16:08:54.441Z,10.45
2022-12-26T16:11:29.636Z,10.60
2022-12-26T16:14:02.691Z,11.30
2022-12-26T16:16:33.601Z,10.85
2022-12-26T16:19:22.949Z,11.70
2022-12-26T16:22:15.941Z,10.68
2022-12-26T16:24:44.284Z,10.52
2022-12-26T16:27:16.829Z,11.20
2022-12-26T16:29:51.613Z,10.35
2022-12-26T16:32:21.672Z,11.32
2022-12-26T16:34:49.688Z,11.43
2022-12-26T16:37:24.304Z,10.85
2022-12-26T16:40:06.681Z,10.75
2022-12-26T16:42:33.941Z,9.45
2022-12-26T16:45:01.859Z,10.85
2022-12-26T16:47:32.015Z,9.82
2022-12-26T16:50:00.091Z,10.40
2022-12-26T16:52:45.848Z,10.35
2022-12-26T16:55:22.959Z,9.70
2022-12-26T16:57:52.569Z,10.05
2022-12-26T17:00:21.881Z,13.98
2022-12-26T17:02:53.464Z,12.45
2022-12-26T17:05:26.907Z,11.45
2022-12-26T17:07:56.187Z,13.00
2022-12-26T17:10:27.943Z,11.90
2022-12-26T17:12:57.881Z,11.25
2022-12-26T17:15:30.002Z,11.43
2022-12-26T17:17:59.049Z,12.30
2022-12-26T17:20:26.150Z,11.30
2022-12-26T17:22:57.331Z,11.75
2022-12-26T17:25:29.681Z,11.43
2022-12-26T17:28:28.265Z,11.93
2022-12-26T17:30:55.389Z,11.38
2022-12-26T17:33:29.182Z,13.55
2022-12-26T17:38:48.855Z,11.00
2022-12-26T17:41:17.114Z,11.93
2022-12-26T17:43:45.547Z,12.30
2022-12-26T17:46:15.932Z,11.40
2022-12-26T17:48:43.758Z,10.35
2022-12-26T17:51:16.565Z,11.30
2022-12-26T17:53:48.645Z,10.30
2022-12-26T17:56:20.273Z,11.80
2022-12-26T17:58:48.279Z,11.55
2022-12-26T18:01:20.725Z,11.13
2022-12-26T18:03:48.749Z,11.82
2022-12-26T18:06:17.342Z,12.73
2022-12-26T18:08:45.146Z,11.95
2022-12-26T18:11:14.443Z,11.75
2022-12-26T18:13:42.385Z,12.35
2022-12-26T18:16:16.728Z,12.40
2022-12-26T18:18:45.090Z,12.52
2022-12-26T18:21:14.479Z,12.55
2022-12-26T18:23:42.004Z,11.38
2022-12-26T18:26:25.187Z,12.15
2022-12-26T18:28:52.747Z,11.88
2022-12-26T18:31:20.425Z,12.70
2022-12-26T18:33:47.443Z,11.52
2022-12-26T18:36:16.132Z,12.52
2022-12-26T18:38:43.489Z,11.50
2022-12-26T18:41:15.437Z,11.80
2022-12-26T18:43:42.587Z,12.85
2022-12-26T18:46:30.286Z,11.63
2022-12-26T18:48:57.655Z,12.63
2022-12-26T18:51:26.123Z,12.48
2022-12-26T18:53:53.297Z,14.15
2022-12-26T18:56:22.246Z,13.88
2022-12-26T18:58:57.422Z,13.38
2022-12-26T19:01:25.783Z,11.50
2022-12-26T19:03:53.971Z,13.00
2022-12-26T19:06:27.049Z,14.18
2022-12-26T19:08:54.000Z,17.45
2022-12-26T19:11:21.622Z,17.85
2022-12-26T19:13:48.934Z,16.63
2022-12-26T19:16:16.103Z,17.25
2022-12-26T19:18:43.123Z,14.98
2022-12-26T19:21:14.127Z,11.00
2022-12-26T19:23:42.063Z,10.70
2022-12-26T19:26:14.366Z,9.73
2022-12-26T19:28:41.421Z,10.27
2022-12-26T19:31:14.053Z,9.85
2022-12-26T19:33:41.191Z,9.73
2022-12-26T19:36:09.738Z,9.90
2022-12-26T19:38:37.285Z,10.90
2022-12-26T19:41:10.719Z,10.63
2022-12-26T19:43:38.458Z,9.77
2022-12-26T19:46:08.370Z,10.23
2022-12-26T19:48:36.872Z,9.52
2022-12-26T19:51:06.610Z,10.35
2022-12-26T19:53:34.641Z,10.65
2022-12-26T19:56:07.903Z,8.80
2022-12-26T19:58:34.800Z,9.23
2022-12-26T20:01:09.302Z,9.93
2022-12-26T20:03:37.110Z,10.43
2022-12-26T20:06:16.613Z,8.52
2022-12-26T20:08:45.216Z,9.45
2022-12-26T20:11:15.703Z,9.02
2022-12-26T20:13:44.354Z,8.38
2022-12-26T20:16:37.414Z,9.38
2022-12-26T20:19:01.664Z,8.57
2022-12-26T20:21:28.606Z,8.18
2022-12-26T20:24:01.353Z,7.32
2022-12-26T20:26:29.091Z,8.07
2022-12-26T20:28:58.517Z,7.25
2022-12-26T20:31:25.486Z,9.75
2022-12-26T20:33:52.863Z,8.90
2022-12-26T20:36:23.281Z,8.07
2022-12-26T20:38:58.660Z,8.80
2022-12-26T20:41:26.975Z,9.50
2022-12-26T20:43:54.205Z,10.10
2022-12-26T20:46:23.671Z,10.13
2022-12-26T20:48:51.132Z,9.35
2022-12-26T20:51:21.460Z,8.38
2022-12-26T20:53:48.326Z,8.23
2022-12-26T20:56:15.478Z,8.13
2022-12-26T20:58:42.648Z,7.88
2022-12-26T21:01:21.386Z,6.45
2022-12-26T21:03:51.724Z,6.07
2022-12-26T21:06:22.584Z,7.18
2022-12-26T21:08:51.263Z,5.75
2022-12-26T21:11:27.324Z,6.45
2022-12-26T21:13:59.869Z,6.20
2022-12-26T21:16:30.674Z,6.07
2022-12-26T21:18:58.231Z,5.65
2022-12-26T21:21:37.489Z,5.03
2022-12-26T21:24:07.495Z,5.55
2022-12-26T21:26:40.041Z,5.30
2022-12-26T21:29:09.311Z,6.45
2022-12-26T21:31:37.883Z,5.60
2022-12-26T21:34:05.333Z,6.50
2022-12-26T21:36:33.953Z,6.90
2022-12-26T21:39:05.876Z,7.93
2022-12-26T21:41:32.891Z,9.13
2022-12-26T21:43:59.865Z,9.20
2022-12-26T21:46:27.114Z,9.05
2022-12-26T21:48:55.489Z,9.63
2022-12-26T21:51:28.954Z,9.93
2022-12-26T21:54:15.793Z,10.23
2022-12-26T21:56:42.955Z,12.02
2022-12-26T21:59:28.430Z,12.13
2022-12-26T22:01:55.645Z,12.65
2022-12-26T22:04:23.912Z,11.93
2022-12-26T22:06:52.638Z,11.93
2022-12-26T22:09:19.746Z,11.13
2022-12-26T22:12:05.699Z,11.70
2022-12-26T22:14:32.699Z,11.48
2022-12-26T22:16:59.656Z,11.38
2022-12-26T22:19:26.594Z,11.45
2022-12-26T22:21:54.980Z,11.68
2022-12-26T22:24:22.594Z,11.18
2022-12-26T22:26:49.651Z,10.02
2022-12-26T22:29:17.098Z,10.48
2022-12-26T22:31:44.056Z,10.20
2022-12-26T22:34:13.968Z,9.43
2022-12-26T22:36:42.025Z,8.80
2022-12-26T22:39:13.335Z,7.50
2022-12-26T22:41:40.296Z,6.90
2022-12-26T22:44:12.485Z,6.50
2022-12-26T22:46:39.712Z,6.63
2022-12-26T22:49:06.727Z,5.55
2022-12-26T22:51:33.684Z,5.63
2022-12-26T22:54:01.894Z,5.20
2022-12-26T22:56:29.646Z,4.28
2022-12-26T22:59:03.110Z,4.97
2022-12-26T23:01:30.425Z,5.82
2022-12-26T23:03:57.854Z,5.22
2022-12-26T23:06:31.009Z,5.80
2022-12-26T23:09:01.296Z,5.80
2022-12-26T23:11:34.700Z,6.32
2022-12-26T23:14:05.067Z,7.00
2022-12-26T23:16:58.563Z,6.15
2022-12-26T23:20:07.159Z,6.13
2022-12-26T23:22:34.434Z,8.23
2022-12-26T23:25:01.305Z,9.02
2022-12-26T23:27:47.157Z,8.13
2022-12-26T23:30:20.279Z,7.82
2022-12-26T23:32:50.940Z,8.98
2022-12-26T23:35:19.647Z,9.20
2022-12-26T23:37:46.846Z,9.50
2022-12-26T23:40:18.017Z,9.10
2022-12-26T23:42:45.554Z,8.60
2022-12-26T23:45:14.177Z,7.65
2022-12-26T23:47:44.349Z,6.90
2022-12-26T23:50:13.104Z,5.68
2022-12-26T23:52:40.706Z,5.30
2022-12-26T23:55:08.078Z,4.82
2022-12-26T23:57:34.979Z,4.60
